NCAR-RAP Real-Time Weather Data

Output produced by METARs form (12 May 2021  11:52 UTC)
found at http://weather.rap.ucar.edu/surface/
 
KDTW 121053Z 32004KT 10SM FEW100 FEW200 04/M02 A3039 RMK AO2 SLP295 T00441017
KDTW 120953Z 34004KT 10SM FEW100 SCT200 04/M02 A3037 RMK AO2 SLP286 T00391022
KDTW 120853Z 35006KT 10SM SCT120 BKN200 04/M02 A3035 RMK AO2 SLP282 T00441022 53000
KDTW 120753Z 33005KT 10SM FEW065 SCT120 BKN200 04/M02 A3035 RMK AO2 SLP281 T00391022
KDTW 120653Z 32006KT 10SM FEW065 SCT120 BKN200 04/M02 A3035 RMK AO2 SLP281 T00441017
KDTW 120553Z 00000KT 10SM FEW065 SCT120 SCT200 06/M01 A3035 RMK AO2 SLP282 T00561006 10111 20044 51006
KDTW 120453Z 20003KT 10SM SCT065 SCT180 06/01 A3035 RMK AO2 SLP281 T00560011 401330022
KDTW 120353Z 00000KT 10SM FEW065 06/M01 A3034 RMK AO2 SLP279 T00611006
KDTW 120253Z 28004KT 10SM FEW065 07/M01 A3033 RMK AO2 SLP275 T00721011 53024
KDTW 120153Z 34003KT 10SM SCT065 09/M02 A3030 RMK AO2 SLP265 T00891017
KDTW 120053Z 36005KT 10SM SCT065 09/M02 A3028 RMK AO2 SLP257 T00941022
KDTW 112353Z 35006KT 10SM SCT085 11/M03 A3026 RMK AO2 SLP250 60000 T01111028 10133 20089 53011
KDTW 112253Z 32013G21KT 10SM SCT090 12/M03 A3024 RMK AO2 SLP243 T01171033
KDTW 112153Z 32015G24KT 10SM SCT090 12/M03 A3023 RMK AO2 RAE2056 SLP241 P0000 T01171033
KDTW 112053Z 32005KT 10SM -RA FEW050 SCT065 BKN090 12/M01 A3023 RMK AO2 PK WND 32026/2039 WSHFT 2031 RAB46 SLP239 P0000 60000 T01171006 56005
KDTW 112051Z 32006G17KT 10SM -RA FEW050 SCT065 BKN090 11/M01 A3023 RMK AO2 PK WND 32026/2039 WSHFT 2031 RAB46 P0000
KDTW 111953Z 36007KT 10SM BKN060 12/M01 A3024 RMK AO2 PK WND 31032/1929 RAB37E48 SLP242 P0000 T01171011